EGCCEGLC

Guest
Details From EGCC - Manchester
To EGLC - London City
Flight Number -
Tags Routegen
Created
Modified
Stats Distance 140 nm / 259 km
Max Altitude 0 ft / 0 m
Waypoints 2
Social Downloads 29
Likes 0
Share

Download

Looking for another format? Having issues loading an existing format? Contact us
Advertisement - Login to hide

Notes

None

Route

EGCC EGLC

ID Type Via Altitude (ft/m) Position (lat/lon) Dist (leg/tot) Name
O EGCC APT - 0 / 0 53.34514 / -2.29274 - / 0 nm
O EGLC APT - 0 / 0 51.50558 / 0.04414 139 / 139 nm

Altitude Profile

Advertisement - Login to hide

EGCC

Details ICAO EGCC (MAN)
Name Manchester
Region United Kingdom
Timezone Europe/London (UTC+1.0)
Stats Elevation 257 ft / 78 m (AMSL)
Location 53.347400° -2.283480°
Runways 2
Magnetic Variation 0.926° W

METAR

EGCC 121750Z AUTO VRB03KT 9999 //////CB 15/04 Q1007 RETS

Decode

TAF

TAF EGCC 121704Z 1218/1324 19006KT 9999 SCT025 TEMPO 1218/1220 7000 SHRA PROB30 TEMPO 1218/1220 3000 +TSGS BKN014 BKN025CB TEMPO 1309/1320 7000 SHRA BECMG 1312/1315 35010KT BECMG 1317/1320 08006KT

Decode

Departure Runways

ID Width Length Bearing (true/mag) Surface Threshold Overrun Markings Lighting
05L 151 ft / 46 m 9,980 ft / 3,042 m 51.00° / 51.92° ASPHALT 1,401 ft / 427 m 0 ft / 0 m PREC-APP CENTERLINE EDGE THRESHOLD ALSF-II TDZ REIL-UNI
05R 144 ft / 44 m 10,519 ft / 3,206 m 50.98° / 51.90° ASPHALT 0 ft / 0 m 0 ft / 0 m UK-PREC-APP CENTERLINE EDGE THRESHOLD ALSF-I REIL-UNI
23L 144 ft / 44 m 10,519 ft / 3,206 m 231.00° / 231.93° ASPHALT 1,093 ft / 333 m 0 ft / 0 m UK-PREC-APP CENTERLINE EDGE THRESHOLD ALSF-I REIL-UNI
23R 151 ft / 46 m 9,980 ft / 3,042 m 231.03° / 231.95° ASPHALT 597 ft / 182 m 200 ft / 61 m PREC-APP CENTERLINE EDGE THRESHOLD ALSF-II TDZ REIL-UNI

EGLC

Details ICAO EGLC (LCY)
Name London City
Region United Kingdom
Timezone Europe/London (UTC+1.0)
Stats Elevation 19 ft / 6 m (AMSL)
Location 51.505200° 0.055176°
Runways 1
Magnetic Variation 0.113° E

METAR

EGLC 121750Z AUTO 16006KT 9999 NCD 15/02 Q1008

Decode

TAF

Not found

Destination Runways

ID Width Length Bearing (true/mag) Surface Threshold Overrun Markings Lighting
09 98 ft / 30 m 4,916 ft / 1,498 m 92.88° / 92.77° ASPHALT 315 ft / 96 m 190 ft / 58 m UK-PREC-APP CENTERLINE EDGE THRESHOLD CALVERT REIL-OMNI
27 98 ft / 30 m 4,916 ft / 1,498 m 272.90° / 272.79° ASPHALT 230 ft / 70 m 302 ft / 92 m UK-PREC-APP CENTERLINE EDGE THRESHOLD CALVERT REIL-OMNI

Approach Navaids

Runway Type Ident Frequency Range Bearing (true/mag) Slope Elevation
09 LOC-ILS ILST 111.15 MHz 18 nm / 33 km 92.89° / 92.78 ° - 19 ft / 6 m (AMSL)
09 DME ILST 111.15 MHz 18 nm / 33 km - - 48 ft / 15 m (AMSL)
09 GS ILST 111.15 MHz 10 nm / 19 km 92.89° / 92.78 ° 5.50° 19 ft / 6 m (AMSL)
27 DME ILSR 111.15 MHz 18 nm / 33 km - - 48 ft / 15 m (AMSL)
27 GS ILSR 111.15 MHz 10 nm / 19 km 272.89° / 272.78 ° 5.50° 19 ft / 6 m (AMSL)
27 LOC-ILS ILSR 111.15 MHz 18 nm / 33 km 272.89° / 272.78 ° - 19 ft / 6 m (AMSL)

Popular Alternatives